Glendale, Kentucky
Current Conditions -  °F | °C
As of 2:58 PM on Sunday 25 Jan 2015 (Local Time) from KFTK Reporting Station
Overcast Overcast  
Wind Chill: 43°   Ceiling: 4000
Heat Index: 43°   Visibility: 10mi
Dew Point: 37°   Wind: 3mph
Humidity: 81%   Direction: 120°ESE
Pressure: 29.6"   Gusts: NA
Location:  37.6°N, 85.91°W
Report Text: KFTK 251958Z 12003KT 10SM OVC040 06/03 A2960 RMK AO2A UPE1957 SLP029 P0001
Loading
Personal Weather Stations






























Interactive Weather Map New forecast layout! Learn more

10-Day Weather Forecast

Advertisements
Track Severe Weather on mobile